This is the latest recevied weather packets stored in our database for station/object IZ1BLA-10. If no packets are shown the sender has not sent any weather packets the latest 10 day(s).
| Time | Temp. | Humidity | Pressure | Rain* | Wind** | Luminosity | Snow |
|---|---|---|---|---|---|---|---|
| 1777988956 | 15° C | 69% | 1012.1 hPa | - | - | - | - |
| 1777988355 | 15° C | 70% | 1012.3 hPa | - | - | - | - |
| 1777987756 | 15.56° C | 67% | 1012.1 hPa | - | - | - | - |
| 1777987155 | 16.11° C | 64% | 1012.1 hPa | - | - | - | - |
| 1777986556 | 15.56° C | 68% | 1012.3 hPa | - | - | - | - |
| 1777985956 | 15° C | 71% | 1012.4 hPa | - | - | - | - |
| 1777985356 | 15° C | 70% | 1012.2 hPa | - | - | - | - |
| 1777984755 | 15° C | 69% | 1012.3 hPa | - | - | - | - |
| 1777984155 | 14.44° C | 71% | 1012.5 hPa | - | - | - | - |
| 1777983556 | 14.44° C | 73% | 1012.5 hPa | - | - | - | - |
| 1777982955 | 13.89° C | 73% | 1012.6 hPa | - | - | - | - |
| 1777982355 | 15.56° C | 68% | 1012.3 hPa | - | - | - | - |
| 1777981755 | 15° C | 70% | 1012.4 hPa | - | - | - | - |
| 1777981155 | 15.56° C | 67% | 1012.4 hPa | - | - | - | - |
| 1777980555 | 15° C | 67% | 1012.5 hPa | - | - | - | - |
| 1777979955 | 15° C | 65% | 1012.6 hPa | - | - | - | - |
| 1777979355 | 15.56° C | 61% | 1012.5 hPa | - | - | - | - |
| 1777978755 | 15.56° C | 60% | 1012.6 hPa | - | - | - | - |
| 1777978155 | 15.56° C | 59% | 1012.5 hPa | - | - | - | - |
| 1777977555 | 15.56° C | 59% | 1012.5 hPa | - | - | - | - |
| 1777976955 | 16.11° C | 57% | 1012.5 hPa | - | - | - | - |
| 1777976355 | 16.11° C | 57% | 1012.5 hPa | - | - | - | - |
| 1777975754 | 16.67° C | 56% | 1012.3 hPa | - | - | - | - |
| 1777975155 | 16.11° C | 59% | 1012.5 hPa | - | - | - | - |
| 1777974555 | 16.11° C | 58% | 1012.7 hPa | - | - | - | - |
* Rain since midnight (hover to see other rain measurements)
** Current wind speed in m/s (hover to see current wind gust speed)